Wetterdaten: Woche 15.06.20 - 21.06.20 (KW25)
Datum Zeit Temp. Aussen Temp. o. S. Temp +5cm Feuchte Auss Luftdruck Regen Sonnenschein Regendauer Solar Windben Empfang
15.06.2020 00:00 16,2 C 14,4 C 14,4 C 94 % 1016,1 hPa 0,0 l/m 0,00 h 0,00 h 0 W/m 0,1 km/h (0 Bft) 99,22 %
15.06.2020 01:00 16,1 C 14,4 C 14,4 C 94 % 1016,2 hPa 0,0 l/m 0,00 h 0,00 h 0 W/m 0,2 km/h (0 Bft) 96,87 %
15.06.2020 02:00 15,9 C 14,4 C 14,3 C 94 % 1016,2 hPa 0,0 l/m 0,00 h 0,00 h 0 W/m 0,0 km/h (0 Bft) 98,01 %
15.06.2020 03:00 15,6 C 14,4 C 13,9 C 93 % 1016,1 hPa 0,0 l/m 0,00 h 0,00 h 0 W/m 0,2 km/h (0 Bft) 97,22 %
15.06.2020 04:00 15,6 C 14,9 C 14,2 C 92 % 1016,0 hPa 0,0 l/m 0,00 h 0,00 h 0 W/m 0,5 km/h (0 Bft) 96,90 %
15.06.2020 05:00 15,7 C 15,0 C 14,2 C 92 % 1016,1 hPa 0,0 l/m 0,00 h 0,00 h 9 W/m 0,2 km/h (0 Bft) 98,64 %
15.06.2020 06:00 16,1 C 15,6 C 15,0 C 93 % 1016,3 hPa 0,0 l/m 0,00 h 0,00 h 19 W/m 0,8 km/h (0 Bft) 96,81 %
15.06.2020 07:00 16,2 C 15,7 C 15,0 C 93 % 1016,6 hPa 0,0 l/m 0,00 h 0,00 h 30 W/m 0,5 km/h (0 Bft) 95,86 %
15.06.2020 08:00 16,6 C 17,1 C 15,9 C 94 % 1016,8 hPa 0,0 l/m 0,00 h 0,00 h 100 W/m 0,6 km/h (0 Bft) 99,65 %
15.06.2020 09:00 18,0 C 20,2 C 18,2 C 91 % 1017,0 hPa 0,0 l/m 0,00 h 0,00 h 225 W/m 1,9 km/h (1 Bft) 96,66 %
15.06.2020 10:00 19,9 C 23,1 C 20,5 C 84 % 1017,2 hPa 0,0 l/m 0,33 h 0,00 h 335 W/m 2,5 km/h (1 Bft) 96,30 %
15.06.2020 11:00 21,6 C 23,9 C 21,4 C 77 % 1017,2 hPa 0,0 l/m 0,20 h 0,00 h 366 W/m 5,6 km/h (1 Bft) 99,57 %
15.06.2020 12:00 21,3 C 22,5 C 20,4 C 77 % 1017,4 hPa 0,2 l/m 0,00 h 0,00 h 289 W/m 4,1 km/h (1 Bft) 96,46 %
15.06.2020 13:00 22,2 C 23,8 C 21,1 C 76 % 1017,2 hPa 0,0 l/m 0,00 h 0,00 h 304 W/m 2,8 km/h (1 Bft) 97,23 %
15.06.2020 14:00 23,2 C 25,4 C 21,6 C 71 % 1016,9 hPa 0,0 l/m 0,33 h 0,00 h 400 W/m 3,6 km/h (1 Bft) 97,51 %
15.06.2020 15:00 24,2 C 26,4 C 22,0 C 67 % 1016,6 hPa 0,0 l/m 0,23 h 0,00 h 390 W/m 3,4 km/h (1 Bft) 97,51 %
15.06.2020 16:00 24,5 C 25,7 C 22,3 C 63 % 1016,4 hPa 0,0 l/m 0,17 h 0,00 h 321 W/m 4,0 km/h (1 Bft) 97,94 %
15.06.2020 17:00 24,5 C 25,4 C 21,7 C 65 % 1016,2 hPa 0,0 l/m 0,33 h 0,00 h 276 W/m 1,9 km/h (1 Bft) 96,50 %
15.06.2020 18:00 24,4 C 23,9 C 21,2 C 64 % 1016,1 hPa 0,0 l/m 0,00 h 0,00 h 143 W/m 1,4 km/h (1 Bft) 98,60 %
15.06.2020 19:00 23,9 C 23,3 C 20,8 C 65 % 1016,1 hPa 0,0 l/m 0,00 h 0,00 h 96 W/m 0,0 km/h (0 Bft) 96,94 %
15.06.2020 20:00 23,3 C 21,9 C 20,3 C 67 % 1016,2 hPa 0,0 l/m 0,00 h 0,00 h 36 W/m 0,7 km/h (0 Bft) 96,87 %
15.06.2020 21:00 22,5 C 20,5 C 19,0 C 71 % 1016,3 hPa 0,0 l/m 0,00 h 0,00 h 12 W/m 0,1 km/h (0 Bft) 99,15 %
15.06.2020 22:00 21,3 C 19,4 C 18,1 C 77 % 1016,6 hPa 0,0 l/m 0,00 h 0,00 h 0 W/m 1,0 km/h (0 Bft) 96,01 %
15.06.2020 23:00 20,7 C 19,4 C 18,9 C 78 % 1016,6 hPa 0,0 l/m 0,00 h 0,00 h 0 W/m 2,0 km/h (1 Bft) 97,79 %
16.06.2020 00:00 20,2 C 18,5 C 18,0 C 79 % 1016,5 hPa 0,0 l/m 0,00 h 0,00 h 0 W/m 0,4 km/h (0 Bft) 99,42 %
16.06.2020 01:00 19,7 C 18,5 C 17,8 C 81 % 1016,3 hPa 0,0 l/m 0,00 h 0,10 h 0 W/m 2,0 km/h (1 Bft) 95,30 %
16.06.2020 02:00 19,3 C 17,2 C 17,1 C 85 % 1016,1 hPa 0,2 l/m 0,00 h 0,63 h 0 W/m 6,3 km/h (2 Bft) 97,88 %
16.06.2020 03:00 18,6 C 15,9 C 15,9 C 89 % 1016,0 hPa 0,2 l/m 0,00 h 0,83 h 0 W/m 0,3 km/h (0 Bft) 99,13 %
16.06.2020 04:00 18,0 C 15,6 C 15,6 C 92 % 1015,7 hPa 0,2 l/m 0,00 h 0,87 h 0 W/m 0,4 km/h (0 Bft) 96,59 %
16.06.2020 05:00 17,6 C 15,6 C 15,6 C 94 % 1015,8 hPa 0,2 l/m 0,00 h 0,57 h 5 W/m 0,1 km/h (0 Bft) 97,16 %
16.06.2020 06:00 17,4 C 15,6 C 15,6 C 96 % 1015,9 hPa 0,2 l/m 0,00 h 0,33 h 16 W/m 1,9 km/h (1 Bft) 99,00 %
16.06.2020 07:00 17,2 C 16,1 C 15,8 C 97 % 1016,1 hPa 0,0 l/m 0,00 h 0,10 h 53 W/m 2,2 km/h (1 Bft) 96,25 %
16.06.2020 08:00 17,4 C 17,2 C 16,7 C 97 % 1016,3 hPa 0,0 l/m 0,00 h 0,07 h 116 W/m 2,1 km/h (1 Bft) 99,43 %
16.06.2020 09:00 17,8 C 18,6 C 17,1 C 94 % 1016,4 hPa 0,0 l/m 0,00 h 0,10 h 177 W/m 2,2 km/h (1 Bft) 96,70 %
16.06.2020 10:00 19,0 C 20,6 C 18,6 C 92 % 1016,3 hPa 0,0 l/m 0,00 h 0,13 h 275 W/m 0,2 km/h (0 Bft) 97,11 %
16.06.2020 11:00 19,8 C 19,7 C 18,2 C 89 % 1016,3 hPa 0,0 l/m 0,00 h 0,47 h 208 W/m 0,0 km/h (0 Bft) 98,93 %
16.06.2020 12:00 20,4 C 21,8 C 19,4 C 90 % 1016,0 hPa 0,0 l/m 0,00 h 0,07 h 313 W/m 0,2 km/h (0 Bft) 96,21 %
16.06.2020 13:00 21,2 C 22,0 C 20,0 C 88 % 1015,6 hPa 0,0 l/m 0,00 h 0,23 h 299 W/m 0,0 km/h (0 Bft) 97,93 %
16.06.2020 14:00 21,8 C 23,5 C 20,4 C 84 % 1015,5 hPa 0,0 l/m 0,23 h 0,10 h 373 W/m 0,7 km/h (0 Bft) 97,66 %
16.06.2020 15:00 22,4 C 23,3 C 20,4 C 78 % 1015,3 hPa 0,0 l/m 0,03 h 0,07 h 311 W/m 4,3 km/h (1 Bft) 97,65 %
16.06.2020 16:00 22,3 C 22,6 C 20,2 C 75 % 1015,0 hPa 0,0 l/m 0,00 h 0,10 h 220 W/m 3,8 km/h (1 Bft) 98,59 %
16.06.2020 17:00 22,1 C 22,6 C 20,1 C 73 % 1014,6 hPa 0,0 l/m 0,00 h 0,20 h 234 W/m 5,8 km/h (2 Bft) 96,28 %
16.06.2020 18:00 22,3 C 21,8 C 19,9 C 72 % 1014,2 hPa 0,0 l/m 0,00 h 0,00 h 157 W/m 8,0 km/h (2 Bft) 98,27 %
16.06.2020 19:00 21,8 C 21,6 C 19,6 C 78 % 1014,0 hPa 0,0 l/m 0,53 h 0,00 h 194 W/m 11,0 km/h (2 Bft) 97,72 %
16.06.2020 20:00 21,3 C 19,9 C 18,9 C 78 % 1013,8 hPa 0,0 l/m 0,00 h 0,00 h 48 W/m 6,6 km/h (2 Bft) 97,08 %
16.06.2020 21:00 20,4 C 18,7 C 17,8 C 81 % 1013,9 hPa 0,0 l/m 0,00 h 0,00 h 15 W/m 1,3 km/h (1 Bft) 97,67 %
16.06.2020 22:00 19,3 C 17,2 C 16,8 C 85 % 1014,2 hPa 0,0 l/m 0,00 h 0,00 h 0 W/m 0,1 km/h (0 Bft) 96,72 %
16.06.2020 23:00 18,2 C 16,1 C 15,6 C 87 % 1014,3 hPa 0,0 l/m 0,00 h 0,00 h 0 W/m 0,0 km/h (0 Bft) 98,16 %
17.06.2020 00:00 17,1 C 14,6 C 14,5 C 89 % 1014,1 hPa 0,0 l/m 0,00 h 0,00 h 0 W/m 0,0 km/h (0 Bft) 98,44 %
17.06.2020 01:00 15,7 C 13,3 C 13,2 C 91 % 1014,1 hPa 0,0 l/m 0,00 h 0,00 h 0 W/m 0,0 km/h (0 Bft) 93,93 %
17.06.2020 02:00 14,9 C 12,9 C 12,8 C 93 % 1013,7 hPa 0,0 l/m 0,00 h 0,00 h 0 W/m 0,0 km/h (0 Bft) 98,93 %
17.06.2020 03:00 14,4 C 12,8 C 12,8 C 94 % 1013,3 hPa 0,0 l/m 0,00 h 0,00 h 0 W/m 0,0 km/h (0 Bft) 97,88 %
17.06.2020 04:00 14,3 C 12,5 C 12,5 C 94 % 1013,0 hPa 0,0 l/m 0,00 h 0,00 h 0 W/m 0,0 km/h (0 Bft) 97,02 %
17.06.2020 05:00 13,8 C 12,3 C 12,1 C 95 % 1012,8 hPa 0,0 l/m 0,00 h 0,00 h 8 W/m 0,0 km/h (0 Bft) 96,53 %
17.06.2020 06:00 13,7 C 12,8 C 12,6 C 96 % 1012,8 hPa 0,0 l/m 0,00 h 0,00 h 25 W/m 0,0 km/h (0 Bft) 97,79 %
17.06.2020 07:00 14,7 C 15,1 C 14,4 C 98 % 1012,8 hPa 0,0 l/m 0,00 h 0,00 h 68 W/m 0,0 km/h (0 Bft) 97,99 %
17.06.2020 08:00 16,9 C 21,2 C 19,9 C 99 % 1012,9 hPa 0,0 l/m 0,00 h 0,00 h 125 W/m 0,0 km/h (0 Bft) 97,40 %
17.06.2020 09:00 19,6 C 23,7 C 23,7 C 94 % 1012,9 hPa 0,0 l/m 0,43 h 0,00 h 296 W/m 1,8 km/h (1 Bft) 95,40 %
17.06.2020 10:00 21,9 C 26,1 C 25,1 C 82 % 1012,7 hPa 0,0 l/m 0,80 h 0,00 h 484 W/m 4,5 km/h (1 Bft) 98,87 %
17.06.2020 11:00 23,7 C 26,4 C 23,5 C 75 % 1012,5 hPa 0,0 l/m 0,83 h 0,00 h 454 W/m 5,6 km/h (1 Bft) 97,86 %
17.06.2020 12:00 25,0 C 28,0 C 24,4 C 72 % 1012,2 hPa 0,0 l/m 0,93 h 0,00 h 555 W/m 7,6 km/h (2 Bft) 96,17 %
17.06.2020 13:00 25,4 C 29,1 C 24,7 C 70 % 1011,6 hPa 0,0 l/m 0,67 h 0,00 h 636 W/m 7,8 km/h (2 Bft) 98,36 %
17.06.2020 14:00 27,3 C 30,7 C 25,2 C 64 % 1010,8 hPa 0,0 l/m 0,87 h 0,00 h 763 W/m 8,8 km/h (2 Bft) 98,50 %
17.06.2020 15:00 26,6 C 28,3 C 23,8 C 66 % 1010,3 hPa 0,0 l/m 0,57 h 0,00 h 508 W/m 6,9 km/h (2 Bft) 95,73 %
17.06.2020 16:00 26,8 C 27,2 C 23,8 C 65 % 1009,9 hPa 0,0 l/m 0,37 h 0,00 h 342 W/m 6,0 km/h (2 Bft) 98,35 %
17.06.2020 17:00 26,3 C 27,1 C 23,5 C 68 % 1009,3 hPa 0,0 l/m 0,57 h 0,00 h 354 W/m 6,1 km/h (2 Bft) 97,93 %
17.06.2020 18:00 25,1 C 24,6 C 21,8 C 70 % 1009,1 hPa 0,0 l/m 0,27 h 0,00 h 220 W/m 4,3 km/h (1 Bft) 97,39 %
17.06.2020 19:00 24,5 C 22,7 C 21,2 C 72 % 1008,8 hPa 0,8 l/m 0,13 h 0,27 h 105 W/m 6,9 km/h (2 Bft) 97,36 %
17.06.2020 20:00 21,2 C 17,3 C 17,5 C 86 % 1009,2 hPa 1,4 l/m 0,00 h 0,93 h 6 W/m 11,7 km/h (2 Bft) 97,86 %
17.06.2020 21:00 18,3 C 15,9 C 16,0 C 93 % 1010,3 hPa 1,4 l/m 0,00 h 1,00 h 6 W/m 14,3 km/h (3 Bft) 98,15 %
17.06.2020 22:00 17,4 C 15,6 C 15,7 C 95 % 1010,5 hPa 0,4 l/m 0,00 h 0,90 h 0 W/m 0,6 km/h (0 Bft) 96,78 %
17.06.2020 23:00 17,2 C 15,6 C 15,7 C 96 % 1010,4 hPa 0,6 l/m 0,00 h 0,90 h 0 W/m 0,0 km/h (0 Bft) 98,36 %
18.06.2020 00:00 16,9 C 15,4 C 15,6 C 97 % 1010,2 hPa 0,6 l/m 0,00 h 0,90 h 0 W/m 0,0 km/h (0 Bft) 98,15 %
18.06.2020 01:00 16,8 C 15,6 C 15,6 C 97 % 1010,1 hPa 0,2 l/m 0,00 h 0,47 h 0 W/m 0,0 km/h (0 Bft) 96,80 %
18.06.2020 02:00 16,7 C 15,6 C 15,2 C 98 % 1009,8 hPa 0,0 l/m 0,00 h 0,00 h 0 W/m 3,2 km/h (1 Bft) 98,21 %
18.06.2020 03:00 16,2 C 14,8 C 14,6 C 98 % 1009,9 hPa 0,0 l/m 0,00 h 0,00 h 0 W/m 9,8 km/h (2 Bft) 97,86 %
18.06.2020 04:00 15,5 C 14,3 C 14,0 C 98 % 1010,1 hPa 0,0 l/m 0,00 h 0,00 h 0 W/m 8,0 km/h (2 Bft) 97,80 %
18.06.2020 05:00 14,9 C 13,6 C 13,3 C 98 % 1010,5 hPa 0,0 l/m 0,00 h 0,10 h 7 W/m 8,6 km/h (2 Bft) 97,00 %
18.06.2020 06:00 14,8 C 13,9 C 13,3 C 98 % 1010,6 hPa 0,0 l/m 0,00 h 0,00 h 17 W/m 2,7 km/h (1 Bft) 98,64 %
18.06.2020 07:00 15,1 C 14,7 C 14,0 C 99 % 1010,9 hPa 0,0 l/m 0,00 h 0,00 h 74 W/m 1,5 km/h (1 Bft) 97,74 %
18.06.2020 08:00 15,7 C 16,7 C 15,8 C 99 % 1011,2 hPa 0,0 l/m 0,00 h 0,00 h 114 W/m 5,9 km/h (2 Bft) 96,81 %
18.06.2020 09:00 17,9 C 21,5 C 22,2 C 91 % 1011,4 hPa 0,0 l/m 0,70 h 0,00 h 352 W/m 11,3 km/h (2 Bft) 97,28 %
18.06.2020 10:00 19,9 C 22,8 C 23,2 C 81 % 1011,7 hPa 0,0 l/m 0,73 h 0,00 h 537 W/m 13,2 km/h (3 Bft) 98,94 %
18.06.2020 11:00 21,4 C 25,0 C 23,5 C 75 % 1011,9 hPa 0,0 l/m 0,73 h 0,00 h 705 W/m 13,9 km/h (3 Bft) 98,07 %
18.06.2020 12:00 22,7 C 25,3 C 22,6 C 72 % 1011,8 hPa 0,0 l/m 0,33 h 0,00 h 482 W/m 6,9 km/h (2 Bft) 96,25 %
18.06.2020 13:00 23,9 C 27,2 C 23,7 C 67 % 1011,6 hPa 0,0 l/m 0,70 h 0,00 h 695 W/m 9,3 km/h (2 Bft) 98,21 %
18.06.2020 14:00 23,9 C 25,8 C 22,4 C 66 % 1011,6 hPa 0,0 l/m 0,47 h 0,00 h 473 W/m 7,2 km/h (2 Bft) 97,29 %
18.06.2020 15:00 23,5 C 24,2 C 21,2 C 66 % 1011,7 hPa 0,0 l/m 0,00 h 0,00 h 279 W/m 2,1 km/h (1 Bft) 98,14 %
18.06.2020 16:00 23,6 C 24,4 C 21,0 C 70 % 1011,5 hPa 0,0 l/m 0,10 h 0,00 h 261 W/m 1,3 km/h (1 Bft) 97,59 %
18.06.2020 17:00 23,3 C 23,1 C 20,4 C 69 % 1011,4 hPa 0,0 l/m 0,00 h 0,00 h 139 W/m 0,1 km/h (0 Bft) 96,65 %
18.06.2020 18:00 21,5 C 19,5 C 18,6 C 76 % 1011,4 hPa 0,0 l/m 0,00 h 0,30 h 101 W/m 3,4 km/h (1 Bft) 98,50 %
18.06.2020 19:00 20,5 C 20,3 C 18,6 C 84 % 1011,4 hPa 0,0 l/m 0,00 h 0,00 h 115 W/m 0,3 km/h (0 Bft) 97,02 %
18.06.2020 20:00 20,4 C 19,2 C 18,2 C 84 % 1012,0 hPa 0,0 l/m 0,00 h 0,00 h 35 W/m 1,7 km/h (1 Bft) 97,31 %
18.06.2020 21:00 19,1 C 16,9 C 17,1 C 83 % 1012,6 hPa 0,0 l/m 0,00 h 0,03 h 5 W/m 0,3 km/h (0 Bft) 98,15 %
18.06.2020 22:00 18,0 C 16,0 C 16,0 C 86 % 1013,4 hPa 0,0 l/m 0,00 h 0,00 h 0 W/m 0,0 km/h (0 Bft) 96,80 %
18.06.2020 23:00 17,1 C 14,6 C 14,6 C 87 % 1013,7 hPa 0,0 l/m 0,00 h 0,00 h 0 W/m 0,0 km/h (0 Bft) 98,57 %
19.06.2020 00:00 16,2 C 14,7 C 14,2 C 91 % 1014,0 hPa 0,0 l/m 0,00 h 0,00 h 0 W/m 0,0 km/h (0 Bft) 94,32 %
19.06.2020 01:00 15,8 C 14,0 C 14,0 C 93 % 1013,9 hPa 0,0 l/m 0,00 h 0,00 h 0 W/m 0,0 km/h (0 Bft) 95,73 %
19.06.2020 02:00 15,1 C 13,0 C 13,0 C 93 % 1014,0 hPa 0,0 l/m 0,00 h 0,00 h 0 W/m 0,2 km/h (0 Bft) 98,57 %
19.06.2020 03:00 14,4 C 12,8 C 12,7 C 94 % 1014,1 hPa 0,0 l/m 0,00 h 0,00 h 0 W/m 0,0 km/h (0 Bft) 98,01 %
19.06.2020 04:00 14,0 C 12,3 C 12,1 C 94 % 1014,0 hPa 0,0 l/m 0,00 h 0,00 h 0 W/m 0,0 km/h (0 Bft) 98,08 %
19.06.2020 05:00 13,4 C 12,0 C 11,7 C 95 % 1014,3 hPa 0,0 l/m 0,00 h 0,00 h 8 W/m 0,0 km/h (0 Bft) 95,08 %
19.06.2020 06:00 13,3 C 12,9 C 12,2 C 96 % 1014,8 hPa 0,0 l/m 0,00 h 0,00 h 24 W/m 0,1 km/h (0 Bft) 98,89 %
19.06.2020 07:00 14,2 C 15,5 C 14,1 C 97 % 1014,9 hPa 0,0 l/m 0,00 h 0,00 h 62 W/m 3,8 km/h (1 Bft) 96,81 %
19.06.2020 08:00 16,6 C 20,7 C 18,3 C 92 % 1015,2 hPa 0,0 l/m 0,00 h 0,00 h 101 W/m 7,5 km/h (2 Bft) 95,66 %
19.06.2020 09:00 19,4 C 22,8 C 22,8 C 80 % 1015,4 hPa 0,0 l/m 0,73 h 0,00 h 438 W/m 7,9 km/h (2 Bft) 98,72 %
19.06.2020 10:00 21,3 C 25,6 C 27,5 C 73 % 1015,5 hPa 0,0 l/m 0,97 h 0,00 h 707 W/m 10,8 km/h (2 Bft) 98,15 %
19.06.2020 11:00 22,9 C 26,3 C 25,4 C 68 % 1015,8 hPa 0,0 l/m 0,80 h 0,00 h 678 W/m 11,0 km/h (2 Bft) 98,21 %
19.06.2020 12:00 24,2 C 27,6 C 25,7 C 64 % 1015,9 hPa 0,0 l/m 0,97 h 0,00 h 771 W/m 11,0 km/h (2 Bft) 95,66 %
19.06.2020 13:00 24,8 C 28,2 C 26,1 C 61 % 1016,0 hPa 0,0 l/m 0,90 h 0,00 h 825 W/m 15,3 km/h (3 Bft) 98,37 %
19.06.2020 14:00 25,8 C 29,9 C 25,5 C 58 % 1015,9 hPa 0,0 l/m 0,87 h 0,00 h 902 W/m 13,0 km/h (3 Bft) 98,98 %
19.06.2020 15:00 25,8 C 28,9 C 24,2 C 56 % 1016,0 hPa 0,0 l/m 0,80 h 0,00 h 770 W/m 12,9 km/h (3 Bft) 95,59 %
19.06.2020 16:00 26,3 C 29,3 C 24,1 C 56 % 1016,1 hPa 0,0 l/m 0,97 h 0,00 h 805 W/m 12,1 km/h (2 Bft) 98,80 %
19.06.2020 17:00 26,0 C 28,0 C 23,3 C 56 % 1016,2 hPa 0,0 l/m 0,90 h 0,00 h 608 W/m 13,2 km/h (3 Bft) 99,43 %
19.06.2020 18:00 25,4 C 26,1 C 22,4 C 56 % 1016,3 hPa 0,0 l/m 1,00 h 0,00 h 472 W/m 10,7 km/h (2 Bft) 95,47 %
19.06.2020 19:00 24,1 C 23,1 C 21,2 C 59 % 1016,5 hPa 0,0 l/m 0,70 h 0,00 h 228 W/m 7,7 km/h (2 Bft) 97,94 %
19.06.2020 20:00 22,3 C 20,5 C 19,9 C 64 % 1016,9 hPa 0,0 l/m 0,00 h 0,00 h 43 W/m 5,6 km/h (1 Bft) 98,15 %
19.06.2020 21:00 20,7 C 18,7 C 18,3 C 69 % 1017,5 hPa 0,0 l/m 0,00 h 0,00 h 18 W/m 2,5 km/h (1 Bft) 97,01 %
19.06.2020 22:00 18,9 C 16,9 C 17,1 C 77 % 1018,5 hPa 0,0 l/m 0,00 h 0,00 h 0 W/m 4,4 km/h (1 Bft) 97,21 %
19.06.2020 23:00 17,5 C 15,2 C 15,4 C 81 % 1019,1 hPa 0,0 l/m 0,00 h 0,00 h 0 W/m 0,3 km/h (0 Bft) 96,28 %
20.06.2020 00:00 16,2 C 14,0 C 14,3 C 85 % 1019,4 hPa 0,0 l/m 0,00 h 0,00 h 0 W/m 0,0 km/h (0 Bft) 97,78 %
20.06.2020 01:00 15,1 C 13,3 C 13,4 C 87 % 1019,7 hPa 0,0 l/m 0,00 h 0,00 h 0 W/m 0,0 km/h (0 Bft) 99,15 %
20.06.2020 02:00 14,6 C 13,6 C 13,6 C 89 % 1019,9 hPa 0,0 l/m 0,00 h 0,00 h 0 W/m 0,0 km/h (0 Bft) 95,10 %
20.06.2020 03:00 14,4 C 13,2 C 13,1 C 90 % 1019,9 hPa 0,0 l/m 0,00 h 0,00 h 0 W/m 0,0 km/h (0 Bft) 98,22 %
20.06.2020 04:00 14,2 C 12,6 C 12,5 C 91 % 1019,9 hPa 0,0 l/m 0,00 h 0,00 h 0 W/m 0,0 km/h (0 Bft) 98,36 %
20.06.2020 05:00 13,9 C 12,9 C 12,8 C 93 % 1020,3 hPa 0,0 l/m 0,00 h 0,00 h 9 W/m 0,0 km/h (0 Bft) 98,72 %
20.06.2020 06:00 14,2 C 13,7 C 13,8 C 94 % 1020,9 hPa 0,0 l/m 0,00 h 0,10 h 21 W/m 0,6 km/h (0 Bft) 96,16 %
20.06.2020 07:00 14,8 C 15,5 C 14,6 C 95 % 1021,0 hPa 0,0 l/m 0,00 h 0,00 h 81 W/m 1,4 km/h (1 Bft) 98,01 %
20.06.2020 08:00 15,8 C 18,2 C 16,8 C 87 % 1021,3 hPa 0,0 l/m 0,00 h 0,00 h 123 W/m 2,6 km/h (1 Bft) 98,06 %
20.06.2020 09:00 19,3 C 23,5 C 23,5 C 73 % 1021,6 hPa 0,0 l/m 0,60 h 0,00 h 399 W/m 3,3 km/h (1 Bft) 98,01 %
20.06.2020 10:00 21,7 C 26,8 C 28,6 C 64 % 1021,7 hPa 0,0 l/m 1,00 h 0,00 h 740 W/m 6,3 km/h (2 Bft) 96,38 %
20.06.2020 11:00 23,5 C 28,6 C 27,6 C 58 % 1021,6 hPa 0,0 l/m 1,00 h 0,00 h 862 W/m 9,2 km/h (2 Bft) 97,21 %
20.06.2020 12:00 24,1 C 29,1 C 26,3 C 56 % 1021,5 hPa 0,0 l/m 0,97 h 0,00 h 943 W/m 9,5 km/h (2 Bft) 98,60 %
20.06.2020 13:00 24,6 C 27,8 C 25,2 C 57 % 1021,5 hPa 0,0 l/m 0,60 h 0,00 h 700 W/m 7,9 km/h (2 Bft) 96,80 %
20.06.2020 14:00 24,7 C 28,7 C 23,5 C 56 % 1021,3 hPa 0,0 l/m 0,77 h 0,00 h 813 W/m 8,9 km/h (2 Bft) 98,15 %
20.06.2020 15:00 25,2 C 28,1 C 22,7 C 55 % 1021,2 hPa 0,0 l/m 0,60 h 0,00 h 661 W/m 9,8 km/h (2 Bft) 98,78 %
20.06.2020 16:00 24,9 C 27,9 C 22,4 C 56 % 1020,9 hPa 0,0 l/m 0,70 h 0,00 h 661 W/m 8,1 km/h (2 Bft) 95,73 %
20.06.2020 17:00 25,0 C 27,0 C 21,7 C 56 % 1020,7 hPa 0,0 l/m 0,73 h 0,00 h 512 W/m 7,0 km/h (2 Bft) 98,02 %
20.06.2020 18:00 25,3 C 26,2 C 21,6 C 54 % 1020,5 hPa 0,0 l/m 0,97 h 0,00 h 457 W/m 5,9 km/h (2 Bft) 97,88 %
20.06.2020 19:00 24,3 C 22,9 C 20,7 C 55 % 1020,4 hPa 0,0 l/m 0,73 h 0,00 h 234 W/m 3,2 km/h (1 Bft) 97,39 %
20.06.2020 20:00 22,2 C 20,1 C 19,0 C 61 % 1020,4 hPa 0,0 l/m 0,00 h 0,00 h 39 W/m 0,5 km/h (0 Bft) 97,71 %
20.06.2020 21:00 20,6 C 18,0 C 17,2 C 66 % 1020,5 hPa 0,0 l/m 0,00 h 0,00 h 13 W/m 0,0 km/h (0 Bft) 97,05 %
20.06.2020 22:00 18,8 C 16,0 C 15,6 C 71 % 1020,9 hPa 0,0 l/m 0,00 h 0,00 h 0 W/m 0,1 km/h (0 Bft) 98,58 %
20.06.2020 23:00 17,3 C 14,7 C 14,4 C 77 % 1021,1 hPa 0,0 l/m 0,00 h 0,00 h 0 W/m 0,0 km/h (0 Bft) 96,18 %
21.06.2020 00:00 16,0 C 13,5 C 13,1 C 81 % 1021,2 hPa 0,0 l/m 0,00 h 0,00 h 0 W/m 0,0 km/h (0 Bft) 94,51 %
21.06.2020 01:00 14,8 C 12,8 C 12,4 C 83 % 1021,2 hPa 0,0 l/m 0,00 h 0,00 h 0 W/m 0,0 km/h (0 Bft) 97,22 %
21.06.2020 02:00 14,0 C 12,0 C 11,8 C 85 % 1020,8 hPa 0,0 l/m 0,00 h 0,00 h 0 W/m 0,0 km/h (0 Bft) 99,37 %
21.06.2020 03:00 13,3 C 11,4 C 11,4 C 86 % 1020,5 hPa 0,0 l/m 0,00 h 0,00 h 0 W/m 0,0 km/h (0 Bft) 96,99 %
21.06.2020 04:00 12,7 C 10,9 C 10,9 C 88 % 1020,4 hPa 0,0 l/m 0,00 h 0,00 h 0 W/m 0,0 km/h (0 Bft) 94,30 %
21.06.2020 05:00 12,3 C 10,7 C 10,6 C 90 % 1020,2 hPa 0,0 l/m 0,00 h 0,00 h 9 W/m 0,0 km/h (0 Bft) 98,24 %
21.06.2020 06:00 12,6 C 12,6 C 12,0 C 94 % 1020,4 hPa 0,0 l/m 0,00 h 0,00 h 21 W/m 1,6 km/h (1 Bft) 99,31 %
21.06.2020 07:00 13,9 C 14,9 C 13,8 C 95 % 1020,3 hPa 0,0 l/m 0,00 h 0,00 h 39 W/m 5,8 km/h (2 Bft) 96,34 %
21.06.2020 08:00 17,7 C 23,2 C 19,8 C 86 % 1020,3 hPa 0,0 l/m 0,00 h 0,00 h 56 W/m 9,8 km/h (2 Bft) 98,19 %
21.06.2020 09:00 22,0 C 26,3 C 27,0 C 69 % 1020,3 hPa 0,0 l/m 0,87 h 0,00 h 516 W/m 12,1 km/h (2 Bft) 98,38 %
21.06.2020 10:00 24,3 C 27,5 C 28,4 C 61 % 1019,9 hPa 0,0 l/m 0,87 h 0,00 h 653 W/m 14,1 km/h (3 Bft) 97,66 %
21.06.2020 11:00 25,0 C 27,7 C 25,9 C 59 % 1019,7 hPa 0,0 l/m 0,80 h 0,00 h 588 W/m 12,6 km/h (3 Bft) 96,31 %
21.06.2020 12:00 25,6 C 28,7 C 26,0 C 57 % 1019,5 hPa 0,0 l/m 0,83 h 0,00 h 704 W/m 11,6 km/h (2 Bft) 98,01 %
21.06.2020 13:00 26,4 C 29,8 C 27,5 C 54 % 1019,2 hPa 0,0 l/m 0,60 h 0,00 h 728 W/m 11,5 km/h (2 Bft) 98,78 %
21.06.2020 14:00 27,0 C 30,1 C 26,4 C 53 % 1019,1 hPa 0,0 l/m 0,67 h 0,00 h 733 W/m 15,1 km/h (3 Bft) 94,49 %
21.06.2020 15:00 27,3 C 28,7 C 25,7 C 52 % 1018,7 hPa 0,0 l/m 0,43 h 0,00 h 513 W/m 13,8 km/h (3 Bft) 98,82 %
21.06.2020 16:00 26,2 C 25,2 C 24,2 C 54 % 1018,6 hPa 0,0 l/m 0,00 h 0,00 h 136 W/m 11,3 km/h (2 Bft) 99,43 %
21.06.2020 17:00 26,7 C 27,3 C 24,9 C 54 % 1018,3 hPa 0,0 l/m 0,62 h 0,00 h 336 W/m 11,1 km/h (2 Bft) 94,00 %
21.06.2020 18:00 25,8 C 24,8 C 23,8 C 55 % 1018,3 hPa 0,0 l/m 0,00 h 0,00 h 123 W/m 9,0 km/h (2 Bft) 98,31 %
21.06.2020 19:00 24,8 C 24,0 C 23,2 C 58 % 1018,6 hPa 0,0 l/m 0,00 h 0,00 h 104 W/m 7,2 km/h (2 Bft) 98,32 %
21.06.2020 20:00 24,1 C 22,9 C 22,4 C 62 % 1019,0 hPa 0,0 l/m 0,00 h 0,00 h 45 W/m 6,6 km/h (2 Bft) 96,46 %
21.06.2020 21:00 22,8 C 21,1 C 20,8 C 67 % 1019,4 hPa 0,0 l/m 0,00 h 0,07 h 10 W/m 2,6 km/h (1 Bft) 97,31 %
21.06.2020 22:00 21,7 C 20,3 C 20,2 C 69 % 1019,8 hPa 0,0 l/m 0,00 h 0,00 h 0 W/m 1,5 km/h (1 Bft) 97,94 %
21.06.2020 23:00 20,9 C 19,1 C 19,1 C 71 % 1020,3 hPa 0,0 l/m 0,00 h 0,00 h 0 W/m 0,0 km/h (0 Bft) 98,08 %
Min-Datum _ 21.06.20 21.06.20 21.06.20 21.06.20 17.06.20 - - - - 15.06.20 21.06.20
_ Min-Zeit 05:48 04:34 04:38 14:48 19:08 - - - - 00:00 00:02
Minimum _ 12,1 C 10,6 C 10,6 C 50 % 1008,6 hPa - - - - 0,0 km/h (0 Bft) 5,56 %
Max-Datum _ 17.06.20 17.06.20 21.06.20 17.06.20 20.06.20 17.06.20 21.06.20 18.06.20 21.06.20 17.06.20 15.06.20
_ Max-Zeit 14:50 13:40 13:40 08:36 10:06 20:24 17:04 00:08 14:10 20:46 00:02
Maximum _ 27,8 C 32,8 C 31,1 C 100 % 1021,8 hPa 1,4 l/m 0,08 h 0,07 h 1182 W/m 29,0 km/h
S-SW (5 Bft)
100,00 %
Durchschnitt _ 19,9 C 20,1 C 18,8 C 79 % 1015,9 hPa #6,6 l/m #36:33 h #11:00 h 300 W/m 4,1 km/h (1 Bft) 97,50 %
© 2020 W. Hausmann